sensor_id;sensor_type;location;lat;lon;timestamp;P1;durP1;ratioP1;P2;durP2;ratioP2
8048;SDS011;20935;42.660;23.342;2023-05-07T00:01:42;3.57;;;3.27;;
8048;SDS011;20935;42.660;23.342;2023-05-07T00:04:28;3.73;;;3.00;;
8048;SDS011;20935;42.660;23.342;2023-05-07T00:07:21;3.57;;;3.27;;
8048;SDS011;20935;42.660;23.342;2023-05-07T00:10:06;3.67;;;3.30;;
8048;SDS011;20935;42.660;23.342;2023-05-07T00:12:52;3.60;;;3.30;;
8048;SDS011;20935;42.660;23.342;2023-05-07T00:15:38;3.67;;;3.37;;
8048;SDS011;20935;42.660;23.342;2023-05-07T00:18:23;3.50;;;3.20;;
8048;SDS011;20935;42.660;23.342;2023-05-07T00:21:10;3.57;;;3.27;;
8048;SDS011;20935;42.660;23.342;2023-05-07T00:23:57;3.60;;;3.30;;
8048;SDS011;20935;42.660;23.342;2023-05-07T00:26:42;4.00;;;3.33;;
8048;SDS011;20935;42.660;23.342;2023-05-07T00:29:28;3.93;;;3.63;;
8048;SDS011;20935;42.660;23.342;2023-05-07T00:32:13;3.70;;;3.40;;
8048;SDS011;20935;42.660;23.342;2023-05-07T00:34:58;4.00;;;3.70;;
8048;SDS011;20935;42.660;23.342;2023-05-07T00:37:44;3.77;;;3.47;;
8048;SDS011;20935;42.660;23.342;2023-05-07T00:40:31;4.03;;;3.17;;
8048;SDS011;20935;42.660;23.342;2023-05-07T00:43:16;4.07;;;3.77;;
8048;SDS011;20935;42.660;23.342;2023-05-07T00:46:01;3.63;;;3.33;;
8048;SDS011;20935;42.660;23.342;2023-05-07T00:48:47;3.43;;;3.13;;
8048;SDS011;20935;42.660;23.342;2023-05-07T00:51:34;4.47;;;3.30;;
8048;SDS011;20935;42.660;23.342;2023-05-07T00:54:19;3.63;;;3.30;;
8048;SDS011;20935;42.660;23.342;2023-05-07T00:57:07;4.17;;;3.77;;
8048;SDS011;20935;42.660;23.342;2023-05-07T00:59:55;3.43;;;3.13;;
8048;SDS011;20935;42.660;23.342;2023-05-07T01:02:40;3.63;;;3.30;;
8048;SDS011;20935;42.660;23.342;2023-05-07T01:05:26;3.47;;;3.17;;
8048;SDS011;20935;42.660;23.342;2023-05-07T01:08:14;3.63;;;3.33;;
8048;SDS011;20935;42.660;23.342;2023-05-07T01:11:00;3.40;;;3.13;;
8048;SDS011;20935;42.660;23.342;2023-05-07T01:13:48;3.70;;;3.40;;
8048;SDS011;20935;42.660;23.342;2023-05-07T01:16:34;5.87;;;3.37;;
8048;SDS011;20935;42.660;23.342;2023-05-07T01:19:19;3.60;;;3.30;;
8048;SDS011;20935;42.660;23.342;2023-05-07T01:22:07;3.23;;;3.03;;
8048;SDS011;20935;42.660;23.342;2023-05-07T01:24:55;3.90;;;3.60;;
8048;SDS011;20935;42.660;23.342;2023-05-07T01:27:40;3.57;;;3.27;;
8048;SDS011;20935;42.660;23.342;2023-05-07T01:30:26;4.03;;;3.63;;
8048;SDS011;20935;42.660;23.342;2023-05-07T01:33:13;4.30;;;3.90;;
8048;SDS011;20935;42.660;23.342;2023-05-07T01:36:00;3.97;;;3.57;;
8048;SDS011;20935;42.660;23.342;2023-05-07T01:38:50;3.47;;;3.17;;
8048;SDS011;20935;42.660;23.342;2023-05-07T01:41:36;3.73;;;3.43;;
8048;SDS011;20935;42.660;23.342;2023-05-07T01:44:22;3.97;;;3.17;;
8048;SDS011;20935;42.660;23.342;2023-05-07T01:47:08;3.73;;;3.43;;
8048;SDS011;20935;42.660;23.342;2023-05-07T01:49:53;3.70;;;3.13;;
8048;SDS011;20935;42.660;23.342;2023-05-07T01:52:40;4.30;;;3.97;;
8048;SDS011;20935;42.660;23.342;2023-05-07T01:55:25;4.07;;;3.00;;
8048;SDS011;20935;42.660;23.342;2023-05-07T01:58:12;3.67;;;3.37;;
8048;SDS011;20935;42.660;23.342;2023-05-07T02:00:57;3.83;;;3.53;;
8048;SDS011;20935;42.660;23.342;2023-05-07T02:03:43;4.53;;;3.83;;
8048;SDS011;20935;42.660;23.342;2023-05-07T02:06:29;3.73;;;3.43;;
8048;SDS011;20935;42.660;23.342;2023-05-07T02:09:14;3.83;;;3.53;;
8048;SDS011;20935;42.660;23.342;2023-05-07T02:11:59;3.80;;;3.50;;
8048;SDS011;20935;42.660;23.342;2023-05-07T02:14:46;3.73;;;3.43;;
8048;SDS011;20935;42.660;23.342;2023-05-07T02:17:32;3.90;;;3.50;;
8048;SDS011;20935;42.660;23.342;2023-05-07T02:20:17;3.67;;;3.37;;
8048;SDS011;20935;42.660;23.342;2023-05-07T02:23:02;3.83;;;3.53;;
8048;SDS011;20935;42.660;23.342;2023-05-07T02:25:48;3.93;;;3.63;;
8048;SDS011;20935;42.660;23.342;2023-05-07T02:28:33;3.70;;;3.40;;
8048;SDS011;20935;42.660;23.342;2023-05-07T02:31:21;3.63;;;3.33;;
8048;SDS011;20935;42.660;23.342;2023-05-07T02:34:06;4.33;;;3.70;;
8048;SDS011;20935;42.660;23.342;2023-05-07T02:36:51;4.07;;;3.67;;
8048;SDS011;20935;42.660;23.342;2023-05-07T02:39:37;4.00;;;3.70;;
8048;SDS011;20935;42.660;23.342;2023-05-07T02:42:22;4.07;;;3.67;;
8048;SDS011;20935;42.660;23.342;2023-05-07T02:45:08;4.03;;;3.73;;
8048;SDS011;20935;42.660;23.342;2023-05-07T02:47:56;3.30;;;3.00;;
8048;SDS011;20935;42.660;23.342;2023-05-07T02:50:41;4.33;;;3.70;;
8048;SDS011;20935;42.660;23.342;2023-05-07T02:53:27;4.23;;;3.83;;
8048;SDS011;20935;42.660;23.342;2023-05-07T02:56:13;5.30;;;4.03;;
8048;SDS011;20935;42.660;23.342;2023-05-07T02:58:58;4.00;;;3.70;;
8048;SDS011;20935;42.660;23.342;2023-05-07T03:01:43;4.37;;;4.00;;
8048;SDS011;20935;42.660;23.342;2023-05-07T03:04:30;4.40;;;4.00;;
8048;SDS011;20935;42.660;23.342;2023-05-07T03:07:16;4.10;;;3.80;;
8048;SDS011;20935;42.660;23.342;2023-05-07T03:10:01;4.00;;;3.60;;
8048;SDS011;20935;42.660;23.342;2023-05-07T03:12:47;4.10;;;3.70;;
8048;SDS011;20935;42.660;23.342;2023-05-07T03:15:32;4.37;;;3.97;;
8048;SDS011;20935;42.660;23.342;2023-05-07T03:18:18;4.23;;;3.90;;
8048;SDS011;20935;42.660;23.342;2023-05-07T03:21:05;4.13;;;3.73;;
8048;SDS011;20935;42.660;23.342;2023-05-07T03:23:50;4.20;;;3.80;;
8048;SDS011;20935;42.660;23.342;2023-05-07T03:26:35;4.73;;;3.90;;
8048;SDS011;20935;42.660;23.342;2023-05-07T03:29:20;3.80;;;3.50;;
8048;SDS011;20935;42.660;23.342;2023-05-07T03:32:06;3.83;;;3.53;;
8048;SDS011;20935;42.660;23.342;2023-05-07T03:34:51;3.93;;;3.53;;
8048;SDS011;20935;42.660;23.342;2023-05-07T03:37:38;3.90;;;3.30;;
8048;SDS011;20935;42.660;23.342;2023-05-07T03:40:24;3.80;;;3.50;;
8048;SDS011;20935;42.660;23.342;2023-05-07T03:43:10;3.60;;;3.30;;
8048;SDS011;20935;42.660;23.342;2023-05-07T03:45:55;3.93;;;3.63;;
8048;SDS011;20935;42.660;23.342;2023-05-07T03:48:40;4.20;;;3.80;;
8048;SDS011;20935;42.660;23.342;2023-05-07T03:51:26;3.80;;;3.40;;
8048;SDS011;20935;42.660;23.342;2023-05-07T03:54:13;3.57;;;3.27;;
8048;SDS011;20935;42.660;23.342;2023-05-07T03:56:58;3.67;;;3.37;;
8048;SDS011;20935;42.660;23.342;2023-05-07T03:59:44;4.27;;;3.87;;
8048;SDS011;20935;42.660;23.342;2023-05-07T04:02:29;3.83;;;3.47;;
8048;SDS011;20935;42.660;23.342;2023-05-07T04:05:15;3.97;;;3.60;;
8048;SDS011;20935;42.660;23.342;2023-05-07T04:08:00;3.87;;;3.47;;
8048;SDS011;20935;42.660;23.342;2023-05-07T04:10:47;4.20;;;3.80;;
8048;SDS011;20935;42.660;23.342;2023-05-07T04:13:32;4.00;;;3.60;;
8048;SDS011;20935;42.660;23.342;2023-05-07T04:16:18;3.70;;;3.40;;
8048;SDS011;20935;42.660;23.342;2023-05-07T04:19:03;5.03;;;3.90;;
8048;SDS011;20935;42.660;23.342;2023-05-07T04:21:49;3.53;;;3.23;;
8048;SDS011;20935;42.660;23.342;2023-05-07T04:24:35;4.10;;;3.50;;
8048;SDS011;20935;42.660;23.342;2023-05-07T04:27:22;3.87;;;3.23;;
8048;SDS011;20935;42.660;23.342;2023-05-07T04:30:07;4.40;;;4.00;;
8048;SDS011;20935;42.660;23.342;2023-05-07T04:32:53;3.77;;;3.47;;
8048;SDS011;20935;42.660;23.342;2023-05-07T04:35:38;3.60;;;3.30;;
8048;SDS011;20935;42.660;23.342;2023-05-07T04:38:24;4.17;;;3.77;;
8048;SDS011;20935;42.660;23.342;2023-05-07T04:41:09;4.43;;;4.03;;
8048;SDS011;20935;42.660;23.342;2023-05-07T04:43:56;4.90;;;3.47;;
8048;SDS011;20935;42.660;23.342;2023-05-07T04:46:42;3.77;;;3.47;;
8048;SDS011;20935;42.660;23.342;2023-05-07T04:49:28;3.80;;;3.50;;
8048;SDS011;20935;42.660;23.342;2023-05-07T04:52:13;4.00;;;3.70;;
8048;SDS011;20935;42.660;23.342;2023-05-07T04:54:59;3.83;;;3.53;;
8048;SDS011;20935;42.660;23.342;2023-05-07T04:57:44;3.60;;;3.30;;
8048;SDS011;20935;42.660;23.342;2023-05-07T05:00:31;4.40;;;4.00;;
8048;SDS011;20935;42.660;23.342;2023-05-07T05:03:16;3.80;;;3.50;;
8048;SDS011;20935;42.660;23.342;2023-05-07T05:06:02;3.70;;;3.40;;
8048;SDS011;20935;42.660;23.342;2023-05-07T05:08:48;3.87;;;3.50;;
8048;SDS011;20935;42.660;23.342;2023-05-07T05:11:33;4.07;;;3.60;;
8048;SDS011;20935;42.660;23.342;2023-05-07T05:14:19;3.90;;;3.53;;
8048;SDS011;20935;42.660;23.342;2023-05-07T05:17:05;4.67;;;4.07;;
8048;SDS011;20935;42.660;23.342;2023-05-07T05:19:51;5.20;;;3.97;;
8048;SDS011;20935;42.660;23.342;2023-05-07T05:22:36;4.13;;;3.73;;
8048;SDS011;20935;42.660;23.342;2023-05-07T05:25:22;4.40;;;3.93;;
8048;SDS011;20935;42.660;23.342;2023-05-07T05:28:07;3.90;;;3.50;;
8048;SDS011;20935;42.660;23.342;2023-05-07T05:30:53;4.43;;;4.03;;
8048;SDS011;20935;42.660;23.342;2023-05-07T05:33:40;4.80;;;3.80;;
8048;SDS011;20935;42.660;23.342;2023-05-07T05:36:25;4.43;;;3.70;;
8048;SDS011;20935;42.660;23.342;2023-05-07T05:39:10;4.23;;;3.83;;
8048;SDS011;20935;42.660;23.342;2023-05-07T05:41:56;3.97;;;3.57;;
8048;SDS011;20935;42.660;23.342;2023-05-07T05:44:41;3.63;;;3.33;;
8048;SDS011;20935;42.660;23.342;2023-05-07T05:47:27;4.17;;;3.80;;
8048;SDS011;20935;42.660;23.342;2023-05-07T05:50:14;4.07;;;3.67;;
8048;SDS011;20935;42.660;23.342;2023-05-07T05:53:00;4.30;;;3.80;;
8048;SDS011;20935;42.660;23.342;2023-05-07T05:55:45;4.63;;;3.87;;
8048;SDS011;20935;42.660;23.342;2023-05-07T05:58:31;3.90;;;3.60;;
8048;SDS011;20935;42.660;23.342;2023-05-07T06:01:17;4.13;;;3.80;;
8048;SDS011;20935;42.660;23.342;2023-05-07T06:04:03;3.87;;;3.57;;
8048;SDS011;20935;42.660;23.342;2023-05-07T06:06:50;4.07;;;3.73;;
8048;SDS011;20935;42.660;23.342;2023-05-07T06:09:35;4.33;;;3.93;;
8048;SDS011;20935;42.660;23.342;2023-05-07T06:12:21;3.93;;;3.63;;
8048;SDS011;20935;42.660;23.342;2023-05-07T06:15:06;3.80;;;3.50;;
8048;SDS011;20935;42.660;23.342;2023-05-07T06:17:52;4.20;;;3.90;;
8048;SDS011;20935;42.660;23.342;2023-05-07T06:20:39;4.30;;;4.00;;
8048;SDS011;20935;42.660;23.342;2023-05-07T06:23:26;4.53;;;4.13;;
8048;SDS011;20935;42.660;23.342;2023-05-07T06:26:12;4.40;;;3.63;;
8048;SDS011;20935;42.660;23.342;2023-05-07T06:28:57;3.97;;;3.60;;
8048;SDS011;20935;42.660;23.342;2023-05-07T06:31:42;3.90;;;3.57;;
8048;SDS011;20935;42.660;23.342;2023-05-07T06:34:28;5.20;;;3.93;;
8048;SDS011;20935;42.660;23.342;2023-05-07T06:37:13;4.20;;;3.83;;
8048;SDS011;20935;42.660;23.342;2023-05-07T06:40:00;3.80;;;3.50;;
8048;SDS011;20935;42.660;23.342;2023-05-07T06:42:46;4.27;;;3.87;;
8048;SDS011;20935;42.660;23.342;2023-05-07T06:45:31;4.23;;;3.83;;
8048;SDS011;20935;42.660;23.342;2023-05-07T06:48:17;4.67;;;4.13;;
8048;SDS011;20935;42.660;23.342;2023-05-07T06:51:02;3.83;;;3.53;;
8048;SDS011;20935;42.660;23.342;2023-05-07T06:53:48;4.00;;;3.70;;
8048;SDS011;20935;42.660;23.342;2023-05-07T06:56:34;4.07;;;3.77;;
8048;SDS011;20935;42.660;23.342;2023-05-07T06:59:20;4.00;;;3.70;;
8048;SDS011;20935;42.660;23.342;2023-05-07T07:02:05;4.23;;;3.93;;
8048;SDS011;20935;42.660;23.342;2023-05-07T07:04:52;4.10;;;3.70;;
8048;SDS011;20935;42.660;23.342;2023-05-07T07:07:37;4.20;;;3.90;;
8048;SDS011;20935;42.660;23.342;2023-05-07T07:10:23;4.53;;;4.13;;
8048;SDS011;20935;42.660;23.342;2023-05-07T07:13:10;4.40;;;4.00;;
8048;SDS011;20935;42.660;23.342;2023-05-07T07:15:56;4.70;;;4.30;;
8048;SDS011;20935;42.660;23.342;2023-05-07T07:18:41;4.73;;;4.17;;
8048;SDS011;20935;42.660;23.342;2023-05-07T07:21:26;4.43;;;4.03;;
8048;SDS011;20935;42.660;23.342;2023-05-07T07:24:12;4.87;;;3.80;;
8048;SDS011;20935;42.660;23.342;2023-05-07T07:27:02;4.67;;;4.27;;
8048;SDS011;20935;42.660;23.342;2023-05-07T07:29:49;4.27;;;3.87;;
8048;SDS011;20935;42.660;23.342;2023-05-07T07:32:35;4.30;;;3.90;;
8048;SDS011;20935;42.660;23.342;2023-05-07T07:35:20;4.07;;;3.70;;
8048;SDS011;20935;42.660;23.342;2023-05-07T07:38:06;4.40;;;4.00;;
8048;SDS011;20935;42.660;23.342;2023-05-07T07:40:51;4.20;;;3.80;;
8048;SDS011;20935;42.660;23.342;2023-05-07T07:43:37;4.50;;;4.10;;
8048;SDS011;20935;42.660;23.342;2023-05-07T07:46:24;4.47;;;4.07;;
8048;SDS011;20935;42.660;23.342;2023-05-07T07:49:10;4.80;;;3.70;;
8048;SDS011;20935;42.660;23.342;2023-05-07T07:51:55;4.33;;;3.90;;
8048;SDS011;20935;42.660;23.342;2023-05-07T07:54:43;3.60;;;3.30;;
8048;SDS011;20935;42.660;23.342;2023-05-07T07:57:29;3.93;;;3.63;;
8048;SDS011;20935;42.660;23.342;2023-05-07T08:00:15;4.70;;;4.30;;
8048;SDS011;20935;42.660;23.342;2023-05-07T08:03:02;4.10;;;3.80;;
8048;SDS011;20935;42.660;23.342;2023-05-07T08:05:49;4.67;;;3.90;;
8048;SDS011;20935;42.660;23.342;2023-05-07T08:08:34;4.73;;;4.20;;
8048;SDS011;20935;42.660;23.342;2023-05-07T08:11:20;4.60;;;4.20;;
8048;SDS011;20935;42.660;23.342;2023-05-07T08:14:06;4.57;;;4.13;;
8048;SDS011;20935;42.660;23.342;2023-05-07T08:16:51;4.30;;;3.90;;
8048;SDS011;20935;42.660;23.342;2023-05-07T08:19:38;4.07;;;3.73;;
8048;SDS011;20935;42.660;23.342;2023-05-07T08:22:23;3.77;;;3.43;;
8048;SDS011;20935;42.660;23.342;2023-05-07T08:25:09;4.37;;;3.97;;
8048;SDS011;20935;42.660;23.342;2023-05-07T08:27:54;3.80;;;3.50;;
8048;SDS011;20935;42.660;23.342;2023-05-07T08:30:39;4.20;;;3.90;;
8048;SDS011;20935;42.660;23.342;2023-05-07T08:33:25;3.83;;;3.43;;
8048;SDS011;20935;42.660;23.342;2023-05-07T08:36:12;4.03;;;3.73;;
8048;SDS011;20935;42.660;23.342;2023-05-07T08:38:57;4.20;;;3.87;;
8048;SDS011;20935;42.660;23.342;2023-05-07T08:41:43;4.60;;;4.20;;
8048;SDS011;20935;42.660;23.342;2023-05-07T08:44:31;4.27;;;3.87;;
8048;SDS011;20935;42.660;23.342;2023-05-07T08:47:18;4.20;;;3.80;;
8048;SDS011;20935;42.660;23.342;2023-05-07T08:50:05;4.33;;;3.93;;
8048;SDS011;20935;42.660;23.342;2023-05-07T08:52:53;4.53;;;4.13;;
8048;SDS011;20935;42.660;23.342;2023-05-07T08:55:40;3.97;;;3.57;;
8048;SDS011;20935;42.660;23.342;2023-05-07T08:58:25;3.80;;;3.50;;
8048;SDS011;20935;42.660;23.342;2023-05-07T09:01:12;3.97;;;3.67;;
8048;SDS011;20935;42.660;23.342;2023-05-07T09:03:59;3.80;;;3.50;;
8048;SDS011;20935;42.660;23.342;2023-05-07T09:06:44;3.53;;;3.23;;
8048;SDS011;20935;42.660;23.342;2023-05-07T09:09:33;3.93;;;3.63;;
8048;SDS011;20935;42.660;23.342;2023-05-07T09:12:18;3.70;;;3.40;;
8048;SDS011;20935;42.660;23.342;2023-05-07T09:15:04;4.23;;;3.83;;
8048;SDS011;20935;42.660;23.342;2023-05-07T09:17:51;4.20;;;3.80;;
8048;SDS011;20935;42.660;23.342;2023-05-07T09:20:36;3.67;;;3.37;;
8048;SDS011;20935;42.660;23.342;2023-05-07T09:23:22;4.30;;;3.90;;
8048;SDS011;20935;42.660;23.342;2023-05-07T09:26:09;3.70;;;3.40;;
8048;SDS011;20935;42.660;23.342;2023-05-07T09:28:55;3.80;;;3.47;;
8048;SDS011;20935;42.660;23.342;2023-05-07T09:31:41;4.20;;;3.80;;
8048;SDS011;20935;42.660;23.342;2023-05-07T09:34:26;4.43;;;4.07;;
8048;SDS011;20935;42.660;23.342;2023-05-07T09:37:12;3.83;;;3.40;;
8048;SDS011;20935;42.660;23.342;2023-05-07T09:39:58;3.80;;;3.50;;
8048;SDS011;20935;42.660;23.342;2023-05-07T09:42:45;4.03;;;3.60;;
8048;SDS011;20935;42.660;23.342;2023-05-07T09:45:30;4.37;;;4.00;;
8048;SDS011;20935;42.660;23.342;2023-05-07T09:48:16;4.40;;;4.00;;
8048;SDS011;20935;42.660;23.342;2023-05-07T09:51:03;4.67;;;4.27;;
8048;SDS011;20935;42.660;23.342;2023-05-07T09:53:56;3.93;;;3.63;;
8048;SDS011;20935;42.660;23.342;2023-05-07T09:56:44;4.40;;;4.00;;
8048;SDS011;20935;42.660;23.342;2023-05-07T09:59:31;4.00;;;3.70;;
8048;SDS011;20935;42.660;23.342;2023-05-07T10:02:17;3.97;;;3.67;;
8048;SDS011;20935;42.660;23.342;2023-05-07T10:05:05;4.23;;;3.83;;
8048;SDS011;20935;42.660;23.342;2023-05-07T10:07:51;3.80;;;3.50;;
8048;SDS011;20935;42.660;23.342;2023-05-07T10:10:38;4.10;;;3.80;;
8048;SDS011;20935;42.660;23.342;2023-05-07T10:13:23;3.77;;;3.47;;
8048;SDS011;20935;42.660;23.342;2023-05-07T10:16:10;5.03;;;3.93;;
8048;SDS011;20935;42.660;23.342;2023-05-07T10:18:56;4.00;;;3.70;;
8048;SDS011;20935;42.660;23.342;2023-05-07T10:21:44;3.63;;;3.20;;
8048;SDS011;20935;42.660;23.342;2023-05-07T10:24:33;4.20;;;3.57;;
8048;SDS011;20935;42.660;23.342;2023-05-07T10:27:20;3.80;;;3.50;;
8048;SDS011;20935;42.660;23.342;2023-05-07T10:30:10;4.37;;;3.97;;
8048;SDS011;20935;42.660;23.342;2023-05-07T10:33:04;4.20;;;3.90;;
8048;SDS011;20935;42.660;23.342;2023-05-07T10:35:55;3.67;;;3.37;;
8048;SDS011;20935;42.660;23.342;2023-05-07T10:38:43;3.83;;;3.40;;
8048;SDS011;20935;42.660;23.342;2023-05-07T10:41:29;4.40;;;4.00;;
8048;SDS011;20935;42.660;23.342;2023-05-07T10:44:24;3.60;;;3.20;;
8048;SDS011;20935;42.660;23.342;2023-05-07T10:47:11;3.90;;;3.60;;
8048;SDS011;20935;42.660;23.342;2023-05-07T10:53:23;4.17;;;3.77;;
8048;SDS011;20935;42.660;23.342;2023-05-07T10:56:25;4.10;;;3.80;;
8048;SDS011;20935;42.660;23.342;2023-05-07T10:59:30;3.70;;;3.40;;
8048;SDS011;20935;42.660;23.342;2023-05-07T11:05:47;3.63;;;3.33;;
8048;SDS011;20935;42.660;23.342;2023-05-07T11:08:53;3.70;;;3.40;;
8048;SDS011;20935;42.660;23.342;2023-05-07T11:11:49;3.93;;;3.63;;
8048;SDS011;20935;42.660;23.342;2023-05-07T11:14:45;4.07;;;3.77;;
8048;SDS011;20935;42.660;23.342;2023-05-07T11:17:30;3.73;;;3.43;;
8048;SDS011;20935;42.660;23.342;2023-05-07T11:20:18;3.57;;;3.27;;
8048;SDS011;20935;42.660;23.342;2023-05-07T11:23:05;4.53;;;3.70;;
8048;SDS011;20935;42.660;23.342;2023-05-07T11:25:51;3.40;;;3.10;;
8048;SDS011;20935;42.660;23.342;2023-05-07T11:28:43;4.10;;;3.70;;
8048;SDS011;20935;42.660;23.342;2023-05-07T11:31:28;3.73;;;3.43;;
8048;SDS011;20935;42.660;23.342;2023-05-07T11:34:14;4.00;;;3.60;;
8048;SDS011;20935;42.660;23.342;2023-05-07T11:37:05;4.70;;;4.10;;
8048;SDS011;20935;42.660;23.342;2023-05-07T11:39:52;4.20;;;3.80;;
8048;SDS011;20935;42.660;23.342;2023-05-07T11:42:48;3.83;;;3.37;;
8048;SDS011;20935;42.660;23.342;2023-05-07T11:45:33;4.00;;;3.23;;
8048;SDS011;20935;42.660;23.342;2023-05-07T11:48:19;3.90;;;3.60;;
8048;SDS011;20935;42.660;23.342;2023-05-07T11:51:06;3.97;;;3.67;;
8048;SDS011;20935;42.660;23.342;2023-05-07T11:53:53;4.27;;;3.87;;
8048;SDS011;20935;42.660;23.342;2023-05-07T11:56:40;3.40;;;3.10;;
8048;SDS011;20935;42.660;23.342;2023-05-07T11:59:25;3.77;;;3.47;;
8048;SDS011;20935;42.660;23.342;2023-05-07T12:02:10;3.57;;;3.27;;
8048;SDS011;20935;42.660;23.342;2023-05-07T12:04:59;4.00;;;3.70;;
8048;SDS011;20935;42.660;23.342;2023-05-07T12:07:46;4.67;;;3.70;;
8048;SDS011;20935;42.660;23.342;2023-05-07T12:10:31;3.70;;;3.40;;
8048;SDS011;20935;42.660;23.342;2023-05-07T12:13:19;4.03;;;3.63;;
8048;SDS011;20935;42.660;23.342;2023-05-07T12:16:05;3.53;;;3.23;;
8048;SDS011;20935;42.660;23.342;2023-05-07T12:18:52;3.20;;;3.00;;
8048;SDS011;20935;42.660;23.342;2023-05-07T12:21:39;3.57;;;3.27;;
8048;SDS011;20935;42.660;23.342;2023-05-07T12:24:24;3.53;;;3.23;;
8048;SDS011;20935;42.660;23.342;2023-05-07T12:27:10;3.40;;;3.10;;
8048;SDS011;20935;42.660;23.342;2023-05-07T12:29:57;3.47;;;3.17;;
8048;SDS011;20935;42.660;23.342;2023-05-07T12:32:43;4.03;;;3.47;;
8048;SDS011;20935;42.660;23.342;2023-05-07T12:35:30;3.40;;;3.20;;
8048;SDS011;20935;42.660;23.342;2023-05-07T12:38:17;3.60;;;3.30;;
8048;SDS011;20935;42.660;23.342;2023-05-07T12:41:02;4.03;;;3.63;;
8048;SDS011;20935;42.660;23.342;2023-05-07T12:43:49;4.17;;;3.77;;
8048;SDS011;20935;42.660;23.342;2023-05-07T12:46:39;3.10;;;2.90;;
8048;SDS011;20935;42.660;23.342;2023-05-07T12:49:24;3.47;;;3.17;;
8048;SDS011;20935;42.660;23.342;2023-05-07T12:52:10;3.50;;;3.20;;
8048;SDS011;20935;42.660;23.342;2023-05-07T12:54:56;3.37;;;3.10;;
8048;SDS011;20935;42.660;23.342;2023-05-07T12:57:42;3.30;;;3.00;;
8048;SDS011;20935;42.660;23.342;2023-05-07T13:00:32;3.20;;;2.90;;
8048;SDS011;20935;42.660;23.342;2023-05-07T13:03:23;3.53;;;3.23;;
8048;SDS011;20935;42.660;23.342;2023-05-07T13:06:10;3.40;;;3.10;;
8048;SDS011;20935;42.660;23.342;2023-05-07T13:08:56;3.60;;;3.30;;
8048;SDS011;20935;42.660;23.342;2023-05-07T13:11:41;3.77;;;3.47;;
8048;SDS011;20935;42.660;23.342;2023-05-07T13:14:27;3.10;;;2.90;;
8048;SDS011;20935;42.660;23.342;2023-05-07T13:17:12;3.27;;;3.07;;
8048;SDS011;20935;42.660;23.342;2023-05-07T13:19:59;3.77;;;3.47;;
8048;SDS011;20935;42.660;23.342;2023-05-07T13:22:45;3.27;;;3.07;;
8048;SDS011;20935;42.660;23.342;2023-05-07T13:25:30;3.20;;;3.00;;
8048;SDS011;20935;42.660;23.342;2023-05-07T13:28:16;3.50;;;3.20;;
8048;SDS011;20935;42.660;23.342;2023-05-07T13:31:02;3.17;;;2.93;;
8048;SDS011;20935;42.660;23.342;2023-05-07T13:33:47;3.30;;;3.00;;
8048;SDS011;20935;42.660;23.342;2023-05-07T13:36:34;3.43;;;3.13;;
8048;SDS011;20935;42.660;23.342;2023-05-07T13:39:20;4.37;;;3.30;;
8048;SDS011;20935;42.660;23.342;2023-05-07T13:42:06;3.73;;;3.43;;
8048;SDS011;20935;42.660;23.342;2023-05-07T13:44:51;3.10;;;2.90;;
8048;SDS011;20935;42.660;23.342;2023-05-07T13:47:37;3.43;;;3.13;;
8048;SDS011;20935;42.660;23.342;2023-05-07T13:50:22;3.60;;;3.30;;
8048;SDS011;20935;42.660;23.342;2023-05-07T13:53:09;3.20;;;3.00;;
8048;SDS011;20935;42.660;23.342;2023-05-07T13:55:54;3.37;;;3.07;;
8048;SDS011;20935;42.660;23.342;2023-05-07T13:58:40;3.00;;;2.70;;
8048;SDS011;20935;42.660;23.342;2023-05-07T14:01:26;3.33;;;3.10;;
8048;SDS011;20935;42.660;23.342;2023-05-07T14:04:12;3.27;;;3.00;;
8048;SDS011;20935;42.660;23.342;2023-05-07T14:06:57;3.07;;;2.87;;
8048;SDS011;20935;42.660;23.342;2023-05-07T14:09:44;2.90;;;2.70;;
8048;SDS011;20935;42.660;23.342;2023-05-07T14:12:30;3.20;;;3.00;;
8048;SDS011;20935;42.660;23.342;2023-05-07T14:15:16;3.20;;;3.00;;
8048;SDS011;20935;42.660;23.342;2023-05-07T14:18:02;3.07;;;2.77;;
8048;SDS011;20935;42.660;23.342;2023-05-07T14:20:47;3.70;;;3.40;;
8048;SDS011;20935;42.660;23.342;2023-05-07T14:23:33;2.90;;;2.70;;
8048;SDS011;20935;42.660;23.342;2023-05-07T14:26:19;2.90;;;2.70;;
8048;SDS011;20935;42.660;23.342;2023-05-07T14:29:05;3.27;;;2.97;;
8048;SDS011;20935;42.660;23.342;2023-05-07T14:31:50;3.40;;;2.83;;
8048;SDS011;20935;42.660;23.342;2023-05-07T14:34:35;3.03;;;2.80;;
8048;SDS011;20935;42.660;23.342;2023-05-07T14:37:21;3.03;;;2.83;;
8048;SDS011;20935;42.660;23.342;2023-05-07T14:40:07;3.33;;;3.07;;
8048;SDS011;20935;42.660;23.342;2023-05-07T14:42:54;3.23;;;2.93;;
8048;SDS011;20935;42.660;23.342;2023-05-07T14:45:41;2.90;;;2.70;;
8048;SDS011;20935;42.660;23.342;2023-05-07T14:48:26;2.90;;;2.70;;
8048;SDS011;20935;42.660;23.342;2023-05-07T14:51:12;2.70;;;2.50;;
8048;SDS011;20935;42.660;23.342;2023-05-07T14:53:58;2.90;;;2.70;;
8048;SDS011;20935;42.660;23.342;2023-05-07T14:56:43;3.17;;;2.97;;
8048;SDS011;20935;42.660;23.342;2023-05-07T14:59:30;2.93;;;2.73;;
8048;SDS011;20935;42.660;23.342;2023-05-07T15:02:16;3.27;;;3.00;;
8048;SDS011;20935;42.660;23.342;2023-05-07T15:05:01;3.20;;;2.90;;
8048;SDS011;20935;42.660;23.342;2023-05-07T15:07:47;2.97;;;2.73;;
8048;SDS011;20935;42.660;23.342;2023-05-07T15:10:34;3.10;;;2.87;;
8048;SDS011;20935;42.660;23.342;2023-05-07T15:13:24;3.00;;;2.80;;
8048;SDS011;20935;42.660;23.342;2023-05-07T15:16:11;2.80;;;2.60;;
8048;SDS011;20935;42.660;23.342;2023-05-07T15:18:56;3.57;;;3.27;;
8048;SDS011;20935;42.660;23.342;2023-05-07T15:21:42;3.10;;;2.90;;
8048;SDS011;20935;42.660;23.342;2023-05-07T15:24:27;3.00;;;2.80;;
8048;SDS011;20935;42.660;23.342;2023-05-07T15:27:13;3.17;;;2.83;;
8048;SDS011;20935;42.660;23.342;2023-05-07T15:29:58;3.50;;;3.20;;
8048;SDS011;20935;42.660;23.342;2023-05-07T15:32:46;3.10;;;2.90;;
8048;SDS011;20935;42.660;23.342;2023-05-07T15:35:32;2.90;;;2.70;;
8048;SDS011;20935;42.660;23.342;2023-05-07T15:38:17;2.93;;;2.73;;
8048;SDS011;20935;42.660;23.342;2023-05-07T15:41:03;3.67;;;3.00;;
8048;SDS011;20935;42.660;23.342;2023-05-07T15:43:49;3.00;;;2.80;;
8048;SDS011;20935;42.660;23.342;2023-05-07T15:46:37;3.10;;;2.90;;
8048;SDS011;20935;42.660;23.342;2023-05-07T15:49:23;2.87;;;2.67;;
8048;SDS011;20935;42.660;23.342;2023-05-07T15:52:09;3.40;;;3.10;;
8048;SDS011;20935;42.660;23.342;2023-05-07T15:54:58;3.30;;;3.00;;
8048;SDS011;20935;42.660;23.342;2023-05-07T15:57:43;3.03;;;2.83;;
8048;SDS011;20935;42.660;23.342;2023-05-07T16:00:29;2.90;;;2.70;;
8048;SDS011;20935;42.660;23.342;2023-05-07T16:03:14;2.67;;;2.47;;
8048;SDS011;20935;42.660;23.342;2023-05-07T16:06:03;2.90;;;2.70;;
8048;SDS011;20935;42.660;23.342;2023-05-07T16:08:48;3.07;;;2.87;;
8048;SDS011;20935;42.660;23.342;2023-05-07T16:11:34;3.00;;;2.80;;
8048;SDS011;20935;42.660;23.342;2023-05-07T16:14:19;3.10;;;2.80;;
8048;SDS011;20935;42.660;23.342;2023-05-07T16:17:05;3.10;;;2.83;;
8048;SDS011;20935;42.660;23.342;2023-05-07T16:19:50;3.00;;;2.80;;
8048;SDS011;20935;42.660;23.342;2023-05-07T16:22:37;3.20;;;3.00;;
8048;SDS011;20935;42.660;23.342;2023-05-07T16:25:23;2.70;;;2.50;;
8048;SDS011;20935;42.660;23.342;2023-05-07T16:28:08;3.20;;;2.90;;
8048;SDS011;20935;42.660;23.342;2023-05-07T16:30:53;3.13;;;2.93;;
8048;SDS011;20935;42.660;23.342;2023-05-07T16:33:39;2.70;;;2.50;;
8048;SDS011;20935;42.660;23.342;2023-05-07T16:36:26;2.93;;;2.73;;
8048;SDS011;20935;42.660;23.342;2023-05-07T16:39:13;2.80;;;2.60;;
8048;SDS011;20935;42.660;23.342;2023-05-07T16:41:58;3.30;;;3.00;;
8048;SDS011;20935;42.660;23.342;2023-05-07T16:44:44;2.80;;;2.60;;
8048;SDS011;20935;42.660;23.342;2023-05-07T16:47:29;3.13;;;2.93;;
8048;SDS011;20935;42.660;23.342;2023-05-07T16:50:15;3.10;;;2.87;;